Time;durP1;ratioP1;P1;durP2;ratioP2;P2;SDS_P1;SDS_P2;PMS_P1;PMS_P2;Temp;Humidity;BMP_temperature;BMP_pressure;BME280_temperature;BME280_humidity;BME280_pressure;Samples;Min_cycle;Max_cycle;Signal;HPM_P1;HPM_P2
2023/06/29 00:02:04;;;;;;;1.67;1.33;;;;;;;24.02;53.77;100693.72;4536612;28;20029;-66
2023/06/29 00:04:20;;;;;;;1.33;1.23;;;;;;;24.03;53.94;100695.38;4536853;28;20109;-66
2023/06/29 00:06:36;;;;;;;1.52;1.25;;;;;;;24.03;53.78;100694.53;4535695;28;20652;-66
2023/06/29 00:08:47;;;;;;;1.73;1.47;;;;;;;24.02;53.66;100687.13;4535824;28;20041;-66
2023/06/29 00:10:58;;;;;;;1.73;1.20;;;;;;;23.88;53.82;100664.63;4534573;28;20299;-66
2023/06/29 00:13:08;;;;;;;1.42;1.30;;;;;;;24.00;53.84;100680.91;4534760;28;20056;-67
2023/06/29 00:15:18;;;;;;;1.75;1.38;;;;;;;24.02;53.96;100681.34;4534158;28;20830;-66
2023/06/29 00:17:29;;;;;;;1.52;1.40;;;;;;;24.03;54.08;100686.72;4535258;28;20044;-66
2023/06/29 00:19:39;;;;;;;1.73;1.30;;;;;;;23.99;54.08;100682.94;4535725;28;20047;-66
2023/06/29 00:21:50;;;;;;;1.73;1.40;;;;;;;24.03;54.04;100683.00;4535512;28;20025;-66
2023/06/29 00:24:01;;;;;;;1.27;1.10;;;;;;;24.00;53.94;100673.09;4535246;28;20407;-66
2023/06/29 00:26:13;;;;;;;1.65;1.25;;;;;;;24.02;54.05;100675.59;4534885;28;20041;-67
2023/06/29 00:28:24;;;;;;;1.77;1.20;;;;;;;23.99;54.03;100665.66;4535378;28;20520;-66
2023/06/29 00:30:34;;;;;;;1.60;1.30;;;;;;;24.01;54.38;100674.75;4533999;28;20084;-66
2023/06/29 00:32:45;;;;;;;1.20;1.10;;;;;;;24.00;54.11;100667.34;4534106;28;20052;-67
2023/06/29 00:34:55;;;;;;;1.75;1.27;;;;;;;24.02;54.17;100670.66;4535145;28;20067;-67
2023/06/29 00:37:06;;;;;;;1.42;1.33;;;;;;;24.01;54.27;100668.13;4534994;28;20489;-67
2023/06/29 00:39:17;;;;;;;1.20;1.10;;;;;;;24.00;54.21;100667.34;4534638;28;20879;-67
2023/06/29 00:41:28;;;;;;;1.30;1.20;;;;;;;24.02;54.37;100673.56;4534318;28;20396;-67
2023/06/29 00:43:41;;;;;;;1.30;1.10;;;;;;;24.00;54.13;100673.09;4535381;28;20025;-67
2023/06/29 00:45:51;;;;;;;1.40;1.30;;;;;;;24.01;54.03;100668.97;4535587;28;20144;-66
2023/06/29 00:48:02;;;;;;;1.45;1.20;;;;;;;23.99;54.02;100664.84;4536595;28;20039;-67
2023/06/29 00:50:13;;;;;;;2.03;1.38;;;;;;;24.01;54.13;100668.13;4533947;28;20107;-66
2023/06/29 00:52:24;;;;;;;1.45;1.35;;;;;;;24.00;53.99;100660.72;4533384;28;20102;-66
2023/06/29 00:54:36;;;;;;;1.98;1.27;;;;;;;24.00;54.08;100663.59;4522293;28;20129;-67
2023/06/29 00:56:46;;;;;;;1.50;1.20;;;;;;;24.01;53.93;100666.09;4534079;28;20507;-67
2023/06/29 00:58:58;;;;;;;2.50;1.40;;;;;;;23.99;54.17;100664.84;4534154;28;20578;-67
2023/06/29 01:01:09;;;;;;;1.60;1.30;;;;;;;23.99;54.18;100654.13;4534674;28;20077;-66
2023/06/29 01:03:20;;;;;;;1.38;1.17;;;;;;;24.02;54.21;100658.28;4535604;28;20037;-67
2023/06/29 01:05:33;;;;;;;1.33;1.20;;;;;;;23.98;54.08;100658.22;4535633;28;20041;-67
2023/06/29 01:08:04;;;;;;;1.40;1.13;;;;;;;24.01;54.01;100657.44;4535607;28;20037;-67
2023/06/29 01:10:23;;;;;;;1.40;1.30;;;;;;;24.01;54.14;100653.72;4535445;28;20048;-67
2023/06/29 01:12:34;;;;;;;1.25;1.15;;;;;;;23.97;54.17;100644.19;4523417;28;20025;-67
2023/06/29 01:14:49;;;;;;;2.22;1.13;;;;;;;23.99;54.13;100656.19;4532764;28;20035;-66
2023/06/29 01:17:01;;;;;;;1.63;1.23;;;;;;;23.93;54.15;100644.09;4535272;28;20025;-67
2023/06/29 01:19:17;;;;;;;1.75;1.20;;;;;;;23.99;53.85;100648.34;4533566;28;20600;-67
2023/06/29 01:21:30;;;;;;;;;;;;;;;24.01;54.24;100660.34;4535724;28;20053;-67
2023/06/29 01:23:42;;;;;;;1.90;1.30;;;;;;;23.95;54.00;100638.78;4535257;28;19917;-67
2023/06/29 01:25:55;;;;;;;1.30;1.20;;;;;;;23.97;53.92;100645.03;4534996;28;20036;-66
2023/06/29 01:28:09;;;;;;;1.77;1.40;;;;;;;24.00;54.00;100643.41;4535438;28;20620;-67
2023/06/29 01:30:19;;;;;;;1.35;1.17;;;;;;;23.98;54.05;100640.94;4534170;28;20048;-67
2023/06/29 01:32:35;;;;;;;1.38;1.13;;;;;;;23.99;53.93;100639.69;4534332;28;20025;-66
2023/06/29 01:34:45;;;;;;;1.48;1.25;;;;;;;23.95;54.24;100641.69;4535162;28;20029;-67
2023/06/29 01:37:02;;;;;;;1.50;1.23;;;;;;;23.99;54.11;100642.56;4533740;28;20037;-67
2023/06/29 01:39:21;;;;;;;1.30;1.20;;;;;;;23.96;54.15;100633.88;4534472;28;20154;-67
2023/06/29 01:41:38;;;;;;;1.45;1.23;;;;;;;23.99;53.92;100636.81;4534484;28;20033;-67
2023/06/29 01:43:51;;;;;;;1.40;1.17;;;;;;;24.00;54.15;100638.50;4535208;28;21066;-66
2023/06/29 01:46:02;;;;;;;1.40;1.30;;;;;;;23.95;54.22;100624.38;4534076;28;21638;-66
2023/06/29 01:48:13;;;;;;;1.52;1.30;;;;;;;23.99;54.10;100636.81;4535185;28;20595;-67
2023/06/29 01:50:25;;;;;;;1.60;1.40;;;;;;;23.97;54.44;100627.75;4534256;28;20575;-67
2023/06/29 01:52:36;;;;;;;1.33;1.23;;;;;;;23.99;54.27;100630.25;4534172;28;20028;-66
2023/06/29 01:54:47;;;;;;;2.15;1.30;;;;;;;23.99;54.25;100630.25;4533155;28;20045;-67
2023/06/29 01:56:57;;;;;;;1.10;1.00;;;;;;;23.96;54.35;100631.00;4533094;28;20024;-67
2023/06/29 01:59:10;;;;;;;1.30;1.20;;;;;;;23.95;54.23;100620.66;4532493;28;20041;-66
2023/06/29 02:01:20;;;;;;;1.40;1.10;;;;;;;23.98;54.20;100635.16;4533060;28;20037;-66
2023/06/29 02:03:31;;;;;;;1.63;1.30;;;;;;;23.95;54.35;100630.16;4534081;28;20037;-67
2023/06/29 02:05:41;;;;;;;1.75;1.33;;;;;;;23.98;54.42;100634.31;4532233;28;20041;-66
2023/06/29 02:07:52;;;;;;;1.58;1.25;;;;;;;23.96;54.49;100628.91;4532946;28;20037;-67
2023/06/29 02:10:06;;;;;;;1.40;1.30;;;;;;;23.97;54.58;100639.28;4532147;28;20148;-67
2023/06/29 02:12:17;;;;;;;1.50;1.20;;;;;;;23.96;54.26;100631.78;4531333;28;20140;-67
2023/06/29 02:14:28;;;;;;;1.55;1.08;;;;;;;23.93;54.69;100617.34;4533855;28;21039;-67
2023/06/29 02:16:38;;;;;;;1.23;1.13;;;;;;;23.99;54.36;100630.25;4532031;28;20210;-66
2023/06/29 02:18:49;;;;;;;1.20;1.10;;;;;;;23.98;54.48;100626.50;4532322;28;20147;-67
2023/06/29 02:20:59;;;;;;;1.27;1.10;;;;;;;23.97;54.28;100621.97;4516722;28;20514;-66
2023/06/29 02:23:09;;;;;;;1.40;1.20;;;;;;;23.93;54.34;100615.28;4533936;28;20037;-67
2023/06/29 02:25:20;;;;;;;1.75;1.30;;;;;;;23.91;54.37;100617.75;4532824;28;20527;-66
2023/06/29 02:27:30;;;;;;;1.40;1.30;;;;;;;23.98;54.53;100619.91;4532920;28;20041;-67
2023/06/29 02:29:41;;;;;;;1.60;1.30;;;;;;;23.97;54.44;100616.22;4523227;28;20140;-67
2023/06/29 02:31:51;;;;;;;1.23;1.10;;;;;;;23.95;54.79;100621.50;4535183;28;20029;-67
2023/06/29 02:34:02;;;;;;;1.40;1.10;;;;;;;23.96;54.83;100623.16;4521436;28;20030;-67
2023/06/29 02:36:15;;;;;;;1.63;1.30;;;;;;;23.92;54.58;100599.22;4531516;28;20044;-66
2023/06/29 02:38:25;;;;;;;1.70;1.40;;;;;;;23.96;54.91;100611.63;4533115;28;20044;-66
2023/06/29 02:40:36;;;;;;;1.20;1.10;;;;;;;23.96;55.09;100610.81;4535614;28;20055;-66
2023/06/29 02:42:46;;;;;;;2.45;1.30;;;;;;;23.94;55.09;100604.59;4535377;28;20029;-67
2023/06/29 02:44:56;;;;;;;1.30;1.20;;;;;;;23.95;55.18;100618.63;4537845;28;20040;-67
2023/06/29 02:47:07;;;;;;;1.65;1.20;;;;;;;23.96;55.28;100611.63;4537140;28;20033;-67
2023/06/29 02:49:17;;;;;;;1.60;1.20;;;;;;;23.94;55.15;100599.66;4535420;28;20044;-66
2023/06/29 02:51:29;;;;;;;1.30;1.20;;;;;;;23.94;55.25;100605.44;4535924;28;20202;-67
2023/06/29 02:53:45;;;;;;;1.30;1.20;;;;;;;23.97;55.13;100610.44;4553363;28;20579;-67
2023/06/29 02:55:55;;;;;;;1.27;1.17;;;;;;;23.95;54.98;100600.47;4534937;28;20045;-67
2023/06/29 02:58:06;;;;;;;1.40;1.13;;;;;;;23.93;55.27;100597.19;4535066;28;20048;-67
2023/06/29 03:00:16;;;;;;;1.27;1.17;;;;;;;23.93;55.23;100597.97;4524441;28;20057;-67
2023/06/29 03:02:27;;;;;;;1.77;1.33;;;;;;;23.97;55.06;100603.84;4510867;28;20072;-67
2023/06/29 03:04:37;;;;;;;1.20;1.10;;;;;;;23.94;55.11;100595.94;4538481;28;20043;-67
2023/06/29 03:06:48;;;;;;;1.38;1.20;;;;;;;23.95;54.93;100601.31;4537132;28;20032;-66
2023/06/29 03:08:58;;;;;;;1.27;0.95;;;;;;;23.95;55.28;100595.56;4535614;28;20073;-67
2023/06/29 03:11:08;;;;;;;1.27;1.17;;;;;;;23.96;54.51;100588.56;4536996;28;20612;-67
2023/06/29 03:13:19;;;;;;;1.52;1.23;;;;;;;23.92;55.05;100583.97;4534543;28;20841;-66
2023/06/29 03:15:29;;;;;;;1.30;1.20;;;;;;;23.94;55.16;100593.91;4537233;28;20033;-67
2023/06/29 03:17:40;;;;;;;1.35;1.17;;;;;;;23.94;54.93;100588.13;4536384;28;20095;-66
2023/06/29 03:19:50;;;;;;;1.45;1.20;;;;;;;23.94;54.65;100588.13;4537284;28;20037;-66
2023/06/29 03:22:00;;;;;;;1.30;1.20;;;;;;;23.92;54.78;100583.97;4537772;28;20044;-66
2023/06/29 03:24:11;;;;;;;1.30;1.20;;;;;;;23.94;54.90;100582.38;4537367;28;20488;-67
2023/06/29 03:26:21;;;;;;;1.52;1.23;;;;;;;23.91;54.67;100577.38;4536544;28;20427;-66
2023/06/29 03:28:32;;;;;;;1.60;1.13;;;;;;;23.96;54.76;100579.09;4535188;28;20029;-67
2023/06/29 03:30:42;;;;;;;1.40;1.30;;;;;;;23.96;54.51;100579.91;4535817;28;20485;-67
2023/06/29 03:32:53;;;;;;;1.88;1.20;;;;;;;23.94;54.62;100576.59;4535993;28;20029;-67
2023/06/29 03:35:04;;;;;;;1.20;1.10;;;;;;;23.94;54.96;100570.84;4536083;28;20903;-67
2023/06/29 03:37:14;;;;;;;1.52;1.10;;;;;;;23.93;55.01;100569.16;4535845;28;20028;-67
2023/06/29 03:39:24;;;;;;;1.75;1.30;;;;;;;23.95;54.91;100568.75;4536355;28;20045;-66
2023/06/29 03:41:35;;;;;;;1.55;1.20;;;;;;;23.94;54.83;100579.47;4536989;28;21178;-67
2023/06/29 03:43:45;;;;;;;1.50;1.30;;;;;;;23.94;55.00;100581.53;4536904;28;20064;-67
2023/06/29 03:45:58;;;;;;;2.30;1.40;;;;;;;23.94;54.76;100570.00;4536219;28;20036;-67
2023/06/29 03:48:08;;;;;;;1.27;1.15;;;;;;;23.92;54.80;100570.38;4536484;28;20025;-66
2023/06/29 03:50:19;;;;;;;1.30;1.20;;;;;;;23.95;54.68;100572.50;4537521;28;20045;-67
2023/06/29 03:52:29;;;;;;;1.20;1.10;;;;;;;23.89;54.60;100568.28;4535323;28;20075;-67
2023/06/29 03:54:40;;;;;;;1.50;1.25;;;;;;;23.93;54.86;100562.56;4534803;28;20083;-67
2023/06/29 03:56:50;;;;;;;1.30;1.20;;;;;;;23.94;54.88;100573.72;4535957;28;20040;-67
2023/06/29 03:59:01;;;;;;;1.30;1.13;;;;;;;23.93;54.78;100574.91;4536520;28;20045;-67
2023/06/29 04:01:11;;;;;;;1.50;1.25;;;;;;;23.93;54.92;100574.91;4537166;28;20040;-66
2023/06/29 04:03:21;;;;;;;1.55;1.33;;;;;;;23.82;54.93;100555.84;4536378;28;20016;-66
2023/06/29 04:05:32;;;;;;;1.50;1.20;;;;;;;23.88;54.60;100562.91;4537166;28;20033;-66
2023/06/29 04:07:42;;;;;;;1.25;1.08;;;;;;;23.92;54.64;100567.50;4536453;28;20036;-66
2023/06/29 04:09:53;;;;;;;1.00;1.00;;;;;;;23.93;54.49;100574.91;4536373;28;20033;-67
2023/06/29 04:12:05;;;;;;;1.35;1.20;;;;;;;23.92;54.50;100572.44;4535719;28;20044;-66
2023/06/29 04:14:15;;;;;;;1.23;1.13;;;;;;;23.94;54.71;100578.66;4535316;28;20044;-67
2023/06/29 04:16:26;;;;;;;1.20;1.10;;;;;;;23.92;54.52;100573.28;4534222;28;20418;-67
2023/06/29 04:18:36;;;;;;;1.65;1.10;;;;;;;23.93;54.47;100571.22;4536051;28;20029;-67
2023/06/29 04:20:46;;;;;;;2.38;1.60;;;;;;;23.92;54.69;100567.50;4536518;28;20037;-67
2023/06/29 04:22:57;;;;;;;1.30;1.20;;;;;;;23.94;54.57;100570.84;4533906;28;20041;-67
2023/06/29 04:25:07;;;;;;;2.22;1.15;;;;;;;23.90;54.62;100564.16;4536475;28;20524;-66
2023/06/29 04:27:18;;;;;;;1.27;1.00;;;;;;;23.92;55.02;100567.50;4533826;28;20090;-68
2023/06/29 04:29:28;;;;;;;1.40;1.30;;;;;;;23.93;54.64;100569.16;4537377;28;20758;-67
2023/06/29 04:31:38;;;;;;;1.45;1.20;;;;;;;23.93;54.64;100571.22;4536139;28;20490;-66
2023/06/29 04:33:49;;;;;;;1.35;1.00;;;;;;;23.89;54.72;100562.53;4535452;28;20090;-67
2023/06/29 04:35:59;;;;;;;1.40;1.20;;;;;;;23.91;54.54;100562.97;4535687;28;20048;-67
2023/06/29 04:38:10;;;;;;;1.88;1.20;;;;;;;23.92;54.36;100563.78;4536370;28;20052;-67
2023/06/29 04:40:21;;;;;;;1.40;1.25;;;;;;;23.93;54.34;100559.69;4535125;28;20285;-67
2023/06/29 04:42:32;;;;;;;1.40;1.30;;;;;;;23.81;54.20;100533.97;4534826;28;20044;-67
2023/06/29 04:44:44;;;;;;;1.83;1.42;;;;;;;23.88;54.49;100542.75;4535501;28;20037;-67
2023/06/29 04:46:55;;;;;;;1.40;1.30;;;;;;;23.90;54.62;100549.75;4535755;28;20115;-67
2023/06/29 04:49:06;;;;;;;1.48;1.20;;;;;;;23.86;54.57;100546.00;4535514;28;20146;-66
2023/06/29 04:51:18;;;;;;;1.55;1.30;;;;;;;23.92;54.54;100555.97;4536166;28;20035;-66
2023/06/29 04:53:29;;;;;;;1.30;1.13;;;;;;;23.92;54.52;100549.38;4535703;28;20029;-67
2023/06/29 04:55:39;;;;;;;1.52;1.25;;;;;;;23.92;54.67;100549.38;4534358;28;20485;-66
2023/06/29 04:57:49;;;;;;;1.40;1.10;;;;;;;23.87;54.63;100539.00;4535890;28;20057;-67
2023/06/29 05:00:00;;;;;;;1.30;1.20;;;;;;;23.90;54.43;100552.63;4536721;28;20037;-67
2023/06/29 05:02:10;;;;;;;1.38;1.20;;;;;;;23.91;54.09;100554.31;4535213;28;20666;-66
2023/06/29 05:04:21;;;;;;;1.67;1.25;;;;;;;23.92;53.94;100550.22;4536224;28;20028;-67
2023/06/29 05:06:31;;;;;;;1.40;1.30;;;;;;;23.89;53.73;100545.22;4534589;28;20446;-67
2023/06/29 05:08:42;;;;;;;2.35;1.10;;;;;;;23.90;53.32;100546.88;4535067;28;20036;-67
2023/06/29 05:10:52;;;;;;;1.73;1.40;;;;;;;23.89;53.46;100550.16;4535166;28;20611;-67
2023/06/29 05:13:03;;;;;;;1.35;1.25;;;;;;;23.88;53.65;100540.66;4534895;28;20048;-67
2023/06/29 05:15:13;;;;;;;1.92;1.40;;;;;;;23.91;53.45;100544.84;4535434;28;20164;-67
2023/06/29 05:17:24;;;;;;;1.42;1.30;;;;;;;23.91;53.62;100548.56;4534809;28;20508;-67
2023/06/29 05:19:36;;;;;;;2.03;1.70;;;;;;;23.89;53.72;100545.22;4550022;28;20037;-67
2023/06/29 05:21:46;;;;;;;1.35;1.23;;;;;;;23.91;53.76;100548.56;4535397;28;20091;-67
2023/06/29 05:23:57;;;;;;;1.60;1.30;;;;;;;23.89;53.95;100541.50;4537288;28;20550;-67
2023/06/29 05:26:07;;;;;;;1.30;1.20;;;;;;;23.92;54.34;100550.22;4536292;28;20044;-67
2023/06/29 05:28:17;;;;;;;1.42;1.33;;;;;;;23.91;54.13;100537.03;4535559;28;20041;-67
2023/06/29 05:30:28;;;;;;;1.30;1.20;;;;;;;23.90;53.72;100540.28;4533391;28;20464;-67
2023/06/29 05:32:38;;;;;;;1.40;1.30;;;;;;;23.90;53.70;100541.09;4533836;28;20090;-67
2023/06/29 05:34:48;;;;;;;1.52;1.40;;;;;;;23.89;53.77;100533.69;4534911;28;20040;-67
2023/06/29 05:36:59;;;;;;;1.40;1.30;;;;;;;23.86;53.84;100528.72;4535372;28;20037;-66
2023/06/29 05:39:09;;;;;;;2.00;1.35;;;;;;;23.91;54.42;100537.03;4534716;28;20037;-66
2023/06/29 05:41:20;;;;;;;1.38;1.20;;;;;;;23.88;55.02;100532.00;4534832;28;20736;-67
2023/06/29 05:43:30;;;;;;;2.05;1.35;;;;;;;23.89;55.69;100532.84;4539278;28;20372;-66
2023/06/29 05:45:41;;;;;;;1.38;1.20;;;;;;;23.86;55.77;100520.06;4534521;28;20033;-67
2023/06/29 05:47:51;;;;;;;1.40;1.30;;;;;;;23.90;55.88;100535.34;4534970;28;20048;-67
2023/06/29 05:50:03;;;;;;;1.95;1.10;;;;;;;23.89;55.98;100527.09;4534894;28;20497;-68
2023/06/29 05:52:13;;;;;;;1.48;1.30;;;;;;;23.88;56.40;100526.25;4533973;28;20033;-67
2023/06/29 05:54:23;;;;;;;1.48;1.20;;;;;;;23.89;56.51;100530.81;4535519;28;20042;-67
2023/06/29 05:56:34;;;;;;;1.70;1.23;;;;;;;23.86;56.66;100527.88;4532249;28;20075;-67
2023/06/29 05:58:46;;;;;;;1.85;1.30;;;;;;;23.86;57.18;100517.19;4534938;28;20179;-67
2023/06/29 06:00:57;;;;;;;1.77;1.25;;;;;;;23.89;56.79;100525.03;4534662;28;20041;-67
2023/06/29 06:03:08;;;;;;;1.92;1.50;;;;;;;23.89;56.50;100527.94;4532406;28;20033;-67
2023/06/29 06:05:18;;;;;;;1.83;1.42;;;;;;;23.90;55.84;100529.56;4536010;28;20037;-65
2023/06/29 06:07:30;;;;;;;1.77;1.45;;;;;;;23.90;55.67;100529.56;4533887;28;20056;-67
2023/06/29 06:09:40;;;;;;;1.85;1.35;;;;;;;23.87;55.27;100526.63;4533813;28;20048;-67
2023/06/29 06:11:51;;;;;;;2.75;1.38;;;;;;;23.88;55.24;100531.19;4534705;28;20879;-67
2023/06/29 06:14:01;;;;;;;1.88;1.30;;;;;;;23.84;55.06;100518.78;4532312;28;20064;-67
2023/06/29 06:16:12;;;;;;;1.58;1.48;;;;;;;23.91;54.92;100537.03;4535981;28;20516;-67
2023/06/29 06:18:22;;;;;;;1.35;1.10;;;;;;;23.91;54.29;100531.25;4537768;28;20021;-67
2023/06/29 06:20:33;;;;;;;1.63;1.30;;;;;;;23.85;54.08;100527.03;4537677;28;20037;-66
2023/06/29 06:22:43;;;;;;;1.30;1.20;;;;;;;23.83;53.78;100523.75;4535764;28;20577;-67
2023/06/29 06:24:54;;;;;;;1.95;1.20;;;;;;;23.92;54.25;100532.91;4537335;28;20032;-68
2023/06/29 06:27:04;;;;;;;2.00;1.45;;;;;;;23.92;54.97;100538.69;4536322;28;20473;-67
2023/06/29 06:29:15;;;;;;;1.50;1.40;;;;;;;23.92;55.27;100535.78;4537169;28;20048;-68
2023/06/29 06:31:25;;;;;;;1.30;1.20;;;;;;;23.91;55.75;100537.03;4537773;28;20549;-67
2023/06/29 06:33:35;;;;;;;1.52;1.33;;;;;;;23.90;56.22;100523.81;4539171;28;20196;-68
2023/06/29 06:35:46;;;;;;;1.60;1.10;;;;;;;23.93;56.76;100534.56;4536086;28;20037;-67
2023/06/29 06:37:56;;;;;;;1.25;1.15;;;;;;;23.90;56.73;100523.81;4534977;28;20103;-68
2023/06/29 06:40:08;;;;;;;1.30;1.10;;;;;;;23.91;56.73;100525.50;4536013;28;20041;-67
2023/06/29 06:42:18;;;;;;;1.75;1.10;;;;;;;23.91;56.74;100530.41;4536662;28;20041;-67
2023/06/29 06:44:29;;;;;;;1.42;1.20;;;;;;;23.94;56.96;100536.25;4536721;28;20024;-67
2023/06/29 06:46:39;;;;;;;1.02;0.93;;;;;;;23.88;56.72;100532.00;4537979;28;20068;-67
2023/06/29 06:48:50;;;;;;;1.55;1.10;;;;;;;23.93;56.37;100533.75;4537001;28;20037;-68
2023/06/29 06:51:04;;;;;;;1.10;1.05;;;;;;;23.91;56.62;100525.50;4536509;28;20343;-66
2023/06/29 06:53:14;;;;;;;2.00;1.20;;;;;;;23.92;56.19;100532.06;4537293;28;20606;-66
2023/06/29 06:55:26;;;;;;;1.25;1.13;;;;;;;23.91;56.15;100522.63;4536166;28;20036;-66
2023/06/29 06:57:36;;;;;;;1.30;1.20;;;;;;;23.91;56.19;100519.72;4536098;28;20043;-66
2023/06/29 06:59:47;;;;;;;2.20;1.30;;;;;;;23.93;55.89;100525.91;4536343;28;20036;-67
2023/06/29 07:01:57;;;;;;;1.33;1.00;;;;;;;23.92;56.02;100530.03;4518727;28;20470;-66
2023/06/29 07:04:08;;;;;;;1.65;1.30;;;;;;;23.91;56.20;100518.88;4536919;28;20036;-67
2023/06/29 07:06:18;;;;;;;1.15;1.05;;;;;;;23.92;56.22;100527.16;4537047;28;20032;-63
2023/06/29 07:08:29;;;;;;;1.40;1.10;;;;;;;23.89;56.59;100516.41;4536659;28;20040;-63
2023/06/29 07:10:40;;;;;;;1.52;1.20;;;;;;;23.90;56.58;100523.81;4537524;28;20037;-63
2023/06/29 07:12:50;;;;;;;1.50;1.40;;;;;;;23.90;56.53;100520.09;4537755;28;20111;-63
2023/06/29 07:15:01;;;;;;;1.65;1.40;;;;;;;23.89;56.27;100516.41;4534675;28;20028;-63
2023/06/29 07:17:11;;;;;;;1.02;0.93;;;;;;;23.92;56.75;100524.25;4534568;28;20551;-63
2023/06/29 07:19:22;;;;;;;1.40;1.30;;;;;;;23.90;56.83;100520.09;4537262;28;20496;-63
2023/06/29 07:21:32;;;;;;;1.73;1.10;;;;;;;23.89;56.95;100515.56;4534727;28;20528;-64
2023/06/29 07:23:43;;;;;;;1.73;1.13;;;;;;;23.90;56.43;100512.28;4536443;28;20091;-63
2023/06/29 07:25:54;;;;;;;1.52;1.40;;;;;;;23.92;57.00;100517.66;4535049;28;20501;-63
2023/06/29 07:28:04;;;;;;;1.50;1.40;;;;;;;23.90;56.61;100509.41;4535830;28;20036;-63
2023/06/29 07:30:16;;;;;;;1.90;1.50;;;;;;;23.91;56.49;100513.97;4524700;28;20123;-64
2023/06/29 07:32:27;;;;;;;1.73;1.30;;;;;;;23.89;56.68;100504.88;4536526;28;20075;-63
2023/06/29 07:34:37;;;;;;;1.88;1.63;;;;;;;23.89;56.77;100504.88;4536496;28;20074;-63
2023/06/29 07:36:48;;;;;;;1.40;1.20;;;;;;;23.92;56.43;100504.06;4537311;28;20029;-63
2023/06/29 07:38:58;;;;;;;2.55;1.30;;;;;;;23.93;57.15;100505.72;4535278;28;20051;-63
2023/06/29 07:41:09;;;;;;;2.33;1.60;;;;;;;23.93;56.11;100507.81;4536653;28;20487;-63
2023/06/29 07:43:19;;;;;;;1.38;1.17;;;;;;;23.92;56.58;100503.25;4535987;28;20188;-63
2023/06/29 07:45:29;;;;;;;2.00;1.80;;;;;;;23.91;56.92;100502.44;4536619;28;20041;-63
2023/06/29 07:47:41;;;;;;;1.90;1.70;;;;;;;23.88;57.18;100497.41;4536754;28;20029;-63
2023/06/29 07:49:51;;;;;;;1.55;1.20;;;;;;;23.89;57.18;100504.88;4536705;28;20040;-64
2023/06/29 07:52:02;;;;;;;1.70;1.50;;;;;;;23.91;56.58;100501.59;4535107;28;20033;-67
2023/06/29 07:54:12;;;;;;;2.10;1.50;;;;;;;23.93;56.87;100499.97;4537017;28;20048;-66
2023/06/29 07:56:23;;;;;;;1.52;1.23;;;;;;;23.93;56.49;100504.91;4534970;28;20207;-65
2023/06/29 07:58:33;;;;;;;1.92;1.52;;;;;;;23.91;56.31;100502.44;4518276;28;20521;-67
2023/06/29 08:00:44;;;;;;;2.13;1.50;;;;;;;23.90;56.60;100497.88;4535895;28;20044;-64
2023/06/29 08:02:54;;;;;;;1.50;1.27;;;;;;;23.93;56.30;100499.97;4535740;28;20037;-64
2023/06/29 08:05:06;;;;;;;2.22;1.60;;;;;;;23.95;56.05;100497.53;4535706;28;20025;-67
2023/06/29 08:07:16;;;;;;;1.63;1.20;;;;;;;23.93;56.63;100499.97;4536675;28;20025;-65
2023/06/29 08:09:27;;;;;;;2.13;1.60;;;;;;;23.93;56.07;100493.38;4534546;28;20584;-64
2023/06/29 08:11:38;;;;;;;2.80;1.90;;;;;;;23.97;55.68;100506.66;4536577;28;20029;-65
2023/06/29 08:13:48;;;;;;;2.30;1.52;;;;;;;23.94;55.94;100497.91;4536834;28;20040;-64
2023/06/29 08:15:59;;;;;;;3.00;1.70;;;;;;;23.96;55.94;100499.16;4534197;28;20067;-64
2023/06/29 08:18:09;;;;;;;2.10;1.85;;;;;;;23.96;55.87;100509.91;4536488;28;20036;-64
2023/06/29 08:20:20;;;;;;;1.60;1.30;;;;;;;23.95;56.28;100509.06;4535100;28;20122;-64
2023/06/29 08:22:30;;;;;;;2.38;1.70;;;;;;;23.94;55.79;100507.41;4536264;28;20037;-64
2023/06/29 08:24:40;;;;;;;1.88;1.60;;;;;;;23.95;55.88;100506.19;4535626;28;20591;-64
2023/06/29 08:26:51;;;;;;;2.30;1.80;;;;;;;23.93;55.50;100499.16;4535363;28;20392;-64
2023/06/29 08:29:01;;;;;;;2.17;1.70;;;;;;;23.95;55.58;100496.69;4537014;28;20028;-66
2023/06/29 08:31:12;;;;;;;2.05;1.48;;;;;;;23.93;55.81;100499.97;4534719;28;20520;-65
2023/06/29 08:33:23;;;;;;;2.30;1.90;;;;;;;23.98;55.16;100501.69;4533315;28;20033;-65
2023/06/29 08:35:34;;;;;;;2.60;2.00;;;;;;;23.94;54.88;100495.88;4536597;28;20354;-66
2023/06/29 08:37:44;;;;;;;2.17;1.75;;;;;;;23.98;54.95;100499.66;4534829;28;20091;-63
2023/06/29 08:39:56;;;;;;;2.72;1.80;;;;;;;23.97;55.28;100483.59;4534844;28;20036;-65
2023/06/29 08:42:07;;;;;;;2.20;1.60;;;;;;;23.97;55.17;100485.63;4535149;28;20648;-65
2023/06/29 08:44:18;;;;;;;3.25;2.03;;;;;;;23.94;54.86;100489.28;4534828;28;20195;-65
2023/06/29 08:46:30;;;;;;;3.67;2.20;;;;;;;23.95;54.15;100483.13;4535455;28;20104;-65
2023/06/29 08:48:44;;;;;;;2.50;1.90;;;;;;;24.00;53.53;100496.38;4535532;28;21663;-65
2023/06/29 08:51:00;;;;;;;2.60;2.00;;;;;;;24.00;53.18;100490.59;4535450;28;20691;-65
2023/06/29 08:53:12;;;;;;;;;;;;;;;23.99;53.13;100489.78;4534504;28;20037;-65
2023/06/29 08:55:23;;;;;;;1.83;1.50;;;;;;;24.00;54.36;100487.72;4536589;28;19917;-67
2023/06/29 08:57:35;;;;;;;2.20;1.60;;;;;;;23.95;55.25;100474.47;4535169;28;20042;-65
2023/06/29 08:59:48;;;;;;;2.83;1.98;;;;;;;24.01;54.62;100489.38;4535214;28;20381;-65
2023/06/29 09:01:59;;;;;;;2.30;1.85;;;;;;;23.95;55.00;100474.47;4534539;28;20601;-67
2023/06/29 09:04:11;;;;;;;3.45;1.83;;;;;;;24.00;54.34;100488.56;4535874;28;20136;-65
2023/06/29 09:06:23;;;;;;;3.03;2.13;;;;;;;23.98;54.40;100481.50;4535204;28;20036;-65
2023/06/29 09:08:37;;;;;;;2.38;1.90;;;;;;;24.01;54.17;100490.22;4535758;28;20021;-66
2023/06/29 09:10:47;;;;;;;2.85;2.05;;;;;;;23.99;53.83;100481.13;4535320;28;20053;-66
2023/06/29 09:12:58;;;;;;;2.92;2.03;;;;;;;24.02;54.98;100489.00;4535831;28;20041;-66
2023/06/29 09:15:13;;;;;;;3.33;2.08;;;;;;;24.02;55.06;100486.13;4536152;28;20548;-65
2023/06/29 09:17:24;;;;;;;2.95;2.17;;;;;;;23.97;54.09;100477.81;4534170;28;20130;-67
2023/06/29 09:19:34;;;;;;;2.85;2.00;;;;;;;24.00;54.15;100479.91;4535318;28;20163;-66
2023/06/29 09:21:47;;;;;;;2.83;2.05;;;;;;;24.02;54.94;100489.00;4535617;28;20525;-66
2023/06/29 09:23:58;;;;;;;3.38;2.08;;;;;;;23.96;54.95;100473.22;4535639;28;20031;-67
2023/06/29 09:26:08;;;;;;;2.80;1.98;;;;;;;23.95;55.06;100473.63;4535057;28;20044;-65
2023/06/29 09:28:19;;;;;;;2.20;1.92;;;;;;;24.01;55.80;100481.56;4534777;28;20031;-65
2023/06/29 09:30:35;;;;;;;2.55;2.25;;;;;;;24.01;55.17;100481.56;4534674;28;20052;-65
2023/06/29 09:32:45;;;;;;;2.50;1.97;;;;;;;23.99;55.05;100480.31;4535388;28;20033;-64
2023/06/29 09:35:05;;;;;;;3.42;2.45;;;;;;;23.95;54.11;100471.56;4550053;28;20041;-65
2023/06/29 09:37:16;;;;;;;2.55;2.20;;;;;;;24.02;53.58;100480.38;4534604;28;20044;-65
2023/06/29 09:39:26;;;;;;;3.08;2.20;;;;;;;24.00;53.65;100471.25;4534650;28;20832;-65
2023/06/29 09:41:56;;;;;;;2.67;2.10;;;;;;;24.03;54.36;100472.53;4535362;28;20187;-65
2023/06/29 09:44:07;;;;;;;2.72;2.30;;;;;;;24.02;55.08;100465.94;4535619;28;20177;-65
2023/06/29 09:46:18;;;;;;;3.15;2.55;;;;;;;23.98;54.84;100450.63;4533794;28;20059;-64
2023/06/29 09:48:30;;;;;;;3.00;2.38;;;;;;;23.93;54.67;100453.84;4534980;28;20040;-65
2023/06/29 09:50:47;;;;;;;3.15;2.33;;;;;;;24.01;54.65;100458.50;4536865;28;20595;-66
2023/06/29 09:53:07;;;;;;;3.92;2.65;;;;;;;24.03;55.29;100469.63;4537862;28;20033;-65
2023/06/29 09:55:18;;;;;;;3.45;2.40;;;;;;;24.01;54.81;100467.16;4537955;28;20059;-65
2023/06/29 09:57:28;;;;;;;1.45;1.10;;;;;;;24.13;52.94;100468.94;4538439;28;20033;-65
2023/06/29 09:59:45;;;;;;;1.48;1.33;;;;;;;24.23;52.44;100471.94;4538344;28;20045;-65
2023/06/29 10:01:57;;;;;;;0.98;0.90;;;;;;;24.33;52.32;100467.50;4536365;28;20044;-65
2023/06/29 10:04:08;;;;;;;1.65;1.20;;;;;;;24.36;51.84;100467.56;4537800;28;20029;-65
2023/06/29 10:06:25;;;;;;;1.70;1.25;;;;;;;24.37;52.06;100460.53;4537529;28;20033;-65
2023/06/29 10:08:40;;;;;;;1.85;1.38;;;;;;;24.42;51.68;100465.97;4538299;28;20576;-65
2023/06/29 10:10:55;;;;;;;1.02;1.00;;;;;;;24.41;51.71;100458.53;4538109;28;20053;-65
2023/06/29 10:13:06;;;;;;;1.23;1.02;;;;;;;24.45;51.76;100459.38;4538205;28;20041;-65